LFRB/BES METAR and TAF weather

Enter ICAO airport designator
Station Type Date Time Source
LFRB METAR 2019/10/22 17:00 UTC NOAA

LFRB 221700Z AUTO 02005KT CAVOK 12/10 Q1021 NOSIG


Station Type Date Time Source
LFRB Decoded METAR 2019/10/22 17:00 UTC NOAA

Brest, France (LFRB) 48-27N 004-25W 103M
Oct 22, 2019 - 01:00 PM EDT / 2019.10.22 1700 UTC
Wind: from the NNE (020 degrees) at 6 MPH (5 KT):0
Visibility: greater than 7 mile(s):0
Temperature: 53 F (12 C)
Dew Point: 50 F (10 C)
Relative Humidity: 87%
Pressure (altimeter): 30.15 in. Hg (1021 hPa)
ob: LFRB 221700Z AUTO 02005KT CAVOK 12/10 Q1021 NOSIG
cycle: 17

Station Type Date Time Source
LFRB TAF 2019/10/22 12:21 UTC NOAA

TAF TAF LFRB 221100Z 2212/2318 VRB05KT CAVOK PROB40
TEMPO 2300/2306 3000 BR NSC PROB40
TEMPO 2301/2305 0500 FG BKN002
BECMG 2305/2307 03010KT BKN010
TEMPO 2311/2318 3000 RADZ OVC010

Example: see airport list